KHDE/HDE METAR and TAF weather

Enter ICAO airport designator
Station Type Date Time Source
KHDE METAR 2021/04/14 19:55 UTC NOAA

KHDE 141955Z AUTO 35008G14KT 320V020 10SM SCT070 BKN090 06/M01 A3027 RMK AO2 T00631011


Station Type Date Time Source
KHDE Decoded METAR 2021/04/14 19:55 UTC NOAA

Brewster Field Airport, NE, United States (KHDE) 40-27N 099-20W
Apr 14, 2021 - 03:55 PM EDT / 2021.04.14 1955 UTC
Wind: from the N (350 degrees) at 9 MPH (8 KT) gusting to 16 MPH (14 KT) (direction variable):0
Visibility: 10 mile(s):0
Sky conditions: mostly cloudy
Temperature: 43.3 F (6.3 C)
Dew Point: 30.0 F (-1.1 C)
Relative Humidity: 59%
Pressure (altimeter): 30.27 in. Hg (1025 hPa)
ob: KHDE 141955Z AUTO 35008G14KT 320V020 10SM SCT070 BKN090 06/M01 A3027 RMK AO2 T00631011
cycle: 20

Station Type Date Time Source
KHDE TAF UTC NOAA

Error!

Example: see airport list